METAR Data
IDs: Format: Raw Decoded Include TAF

Data at: 0652 UTC 22 Jan 2021

METAR for:EGMC (Southend Arpt, EN, UK)
Text:EGMC 220620Z 23008KT CAVOK 01/M00 Q0990
Temperature: 1.0°C ( 34°F)
Dewpoint: 0.0°C ( 32°F) [RH = 93%]
Pressure (altimeter):29.23 inches Hg ( 990.0 mb)
Winds:from the SW (230 degrees) at 9 MPH (8 knots; 4.1 m/s)
Visibility:6 or more sm (10+ km)
Ceiling:ceiling and visibility are OK
Clouds:unknown